Time;durP1;ratioP1;P1;durP2;ratioP2;P2;SDS_P1;SDS_P2;PMS_P1;PMS_P2;Temp;Humidity;BMP_temperature;BMP_pressure;BME280_temperature;BME280_humidity;BME280_pressure;Samples;Min_cycle;Max_cycle;Signal;HPM_P1;HPM_P2
2022/03/10 00:02:11;;;;;;;21.63;12.00;;;8.30;44.10;;;;;;5052413;28;20029;-58
2022/03/10 00:04:37;;;;;;;22.48;12.32;;;8.30;44.20;;;;;;5052463;28;20041;-60
2022/03/10 00:07:05;;;;;;;21.75;12.35;;;8.30;44.20;;;;;;5034931;28;20033;-70
2022/03/10 00:09:32;;;;;;;21.38;12.85;;;8.30;44.20;;;;;;5052725;28;20029;-58
2022/03/10 00:12:01;;;;;;;19.05;12.23;;;8.30;44.30;;;;;;5035172;28;20469;-60
2022/03/10 00:14:27;;;;;;;20.40;11.75;;;8.20;44.30;;;;;;5034371;28;20033;-61
2022/03/10 00:16:53;;;;;;;19.70;11.60;;;8.20;44.30;;;;;;5035168;28;20075;-59
2022/03/10 00:19:19;;;;;;;19.83;12.07;;;8.20;44.30;;;;;;5051910;28;20029;-59
2022/03/10 00:21:46;;;;;;;21.40;12.75;;;8.20;44.40;;;;;;5052428;28;20049;-59
2022/03/10 00:24:12;;;;;;;21.52;11.95;;;8.20;44.50;;;;;;5051975;28;20025;-58
2022/03/10 00:26:38;;;;;;;18.77;11.73;;;8.10;44.50;;;;;;5052251;28;20033;-61
2022/03/10 00:29:05;;;;;;;19.90;11.55;;;8.10;44.50;;;;;;5052314;28;20029;-71
2022/03/10 00:31:31;;;;;;;22.30;11.98;;;8.10;44.80;;;;;;5052329;28;20151;-59
2022/03/10 00:33:57;;;;;;;20.02;11.05;;;8.00;44.80;;;;;;5034795;28;20119;-58
2022/03/10 00:36:23;;;;;;;20.42;12.27;;;7.90;44.70;;;;;;5052376;28;20505;-57
2022/03/10 00:38:49;;;;;;;23.92;11.68;;;7.90;44.90;;;;;;5052516;28;20025;-63
2022/03/10 00:41:15;;;;;;;17.33;12.07;;;7.90;44.80;;;;;;5051442;28;20154;-57
2022/03/10 00:43:41;;;;;;;19.52;11.77;;;7.90;44.90;;;;;;5034286;28;20078;-60
2022/03/10 00:46:06;;;;;;;18.70;11.52;;;7.80;44.90;;;;;;5051583;28;20060;-69
2022/03/10 00:48:32;;;;;;;19.80;12.38;;;7.80;44.90;;;;;;5051593;28;20032;-57
2022/03/10 00:50:58;;;;;;;20.15;11.75;;;7.80;45.00;;;;;;5051788;28;20056;-58
2022/03/10 00:53:24;;;;;;;21.77;11.95;;;7.80;45.10;;;;;;5033794;28;20033;-58
2022/03/10 00:55:50;;;;;;;19.88;12.00;;;7.70;45.10;;;;;;5052138;28;20424;-58
2022/03/10 00:58:16;;;;;;;20.80;12.23;;;7.70;45.20;;;;;;5051656;28;20112;-58
2022/03/10 01:00:41;;;;;;;22.23;12.05;;;7.70;45.30;;;;;;5052124;28;20044;-61
2022/03/10 01:03:08;;;;;;;21.30;11.50;;;7.60;45.30;;;;;;5051913;28;20075;-67
2022/03/10 01:05:34;;;;;;;23.35;12.57;;;7.60;45.50;;;;;;5051449;28;20045;-59
2022/03/10 01:08:00;;;;;;;25.40;12.07;;;7.60;45.50;;;;;;5051781;28;20112;-60
2022/03/10 01:10:26;;;;;;;25.10;12.25;;;7.50;45.60;;;;;;5033851;28;20236;-59
2022/03/10 01:12:52;;;;;;;20.48;12.05;;;7.50;45.70;;;;;;5052526;28;20111;-58
2022/03/10 01:15:21;;;;;;;21.02;11.93;;;7.50;45.80;;;;;;5051741;28;20037;-59
2022/03/10 01:17:47;;;;;;;19.15;12.65;;;7.50;45.80;;;;;;5034480;28;20116;-58
2022/03/10 01:20:13;;;;;;;23.65;12.02;;;7.50;45.90;;;;;;5051526;28;20052;-59
2022/03/10 01:22:39;;;;;;;19.38;12.55;;;7.40;45.90;;;;;;5051782;28;20052;-57
2022/03/10 01:25:07;;;;;;;23.30;11.82;;;7.40;46.00;;;;;;5034171;28;20072;-58
2022/03/10 01:27:34;;;;;;;29.05;12.95;;;7.40;46.00;;;;;;5051762;28;20025;-56
2022/03/10 01:30:00;;;;;;;21.02;11.85;;;7.40;46.00;;;;;;5033982;28;20484;-58
2022/03/10 01:32:26;;;;;;;21.80;12.90;;;7.40;46.00;;;;;;5051690;28;20029;-58
2022/03/10 01:34:52;;;;;;;21.83;12.70;;;7.40;46.00;;;;;;5051746;28;20029;-57
2022/03/10 01:37:19;;;;;;;22.95;13.00;;;7.40;46.00;;;;;;5051621;28;20109;-60
2022/03/10 01:39:45;;;;;;;21.77;12.40;;;7.30;46.10;;;;;;5033961;28;20052;-58
2022/03/10 01:42:11;;;;;;;23.42;12.88;;;7.30;46.20;;;;;;5050965;28;20029;-71
2022/03/10 01:44:37;;;;;;;26.38;12.30;;;7.30;46.20;;;;;;5034068;28;20370;-58
2022/03/10 01:47:05;;;;;;;22.33;12.55;;;7.30;46.20;;;;;;5033388;28;20446;-58
2022/03/10 01:49:32;;;;;;;19.60;12.05;;;7.30;46.30;;;;;;5051390;28;20025;-57
2022/03/10 01:51:59;;;;;;;23.80;13.18;;;7.30;46.50;;;;;;5033764;28;20028;-58
2022/03/10 01:54:24;;;;;;;24.58;12.77;;;7.20;46.40;;;;;;5050735;28;20033;-58
2022/03/10 01:56:51;;;;;;;20.77;12.10;;;7.20;46.50;;;;;;5051699;28;20025;-59
2022/03/10 01:59:19;;;;;;;23.38;12.50;;;7.20;46.50;;;;;;5050614;28;20061;-58
2022/03/10 02:01:45;;;;;;;20.27;12.25;;;7.20;46.60;;;;;;5051372;28;20033;-64
2022/03/10 02:04:11;;;;;;;26.55;13.40;;;7.20;46.60;;;;;;5050832;28;20033;-63
2022/03/10 02:06:37;;;;;;;19.92;12.93;;;7.20;46.60;;;;;;5052145;28;20025;-59
2022/03/10 02:11:48;;;;;;;19.70;12.88;;;7.10;46.70;;;;;;5036443;28;20098;-60
2022/03/10 02:17:20;;;;;;;23.52;13.45;;;7.00;46.90;;;;;;5051032;28;20500;-56
2022/03/10 02:20:05;;;;;;;23.00;13.43;;;7.00;47.00;;;;;;5051149;28;20051;-59
2022/03/10 02:22:31;;;;;;;20.58;12.25;;;7.00;47.10;;;;;;5055801;28;20315;-57
2022/03/10 02:24:56;;;;;;;25.17;13.57;;;7.00;47.10;;;;;;5037168;28;20071;-58
2022/03/10 02:27:24;;;;;;;20.75;12.93;;;7.00;47.20;;;;;;5055009;28;20078;-58
2022/03/10 02:29:52;;;;;;;21.05;13.20;;;7.00;47.30;;;;;;5055195;28;20032;-58
2022/03/10 02:32:19;;;;;;;22.88;13.45;;;7.00;47.40;;;;;;5054604;28;20021;-58
2022/03/10 02:34:46;;;;;;;21.92;12.82;;;6.90;47.40;;;;;;5036944;28;20060;-60
2022/03/10 02:37:12;;;;;;;19.17;12.18;;;6.90;47.40;;;;;;5055763;28;20061;-70
2022/03/10 02:39:39;;;;;;;22.10;13.68;;;6.90;47.60;;;;;;5037795;28;20353;-58
2022/03/10 02:42:06;;;;;;;24.10;12.65;;;6.90;47.70;;;;;;5055088;28;20028;-58
2022/03/10 02:44:32;;;;;;;21.30;13.20;;;6.90;47.80;;;;;;5054430;28;20098;-58
2022/03/10 02:46:57;;;;;;;20.50;12.50;;;6.80;47.80;;;;;;5037053;28;20115;-57
2022/03/10 02:49:23;;;;;;;20.88;12.93;;;6.80;47.90;;;;;;5054115;28;20147;-55
2022/03/10 02:51:50;;;;;;;20.00;11.65;;;6.80;48.00;;;;;;5037297;28;20434;-56
2022/03/10 02:57:00;;;;;;;19.73;12.27;;;6.80;48.00;;;;;;5055103;28;20036;-55
2022/03/10 02:59:26;;;;;;;20.55;13.25;;;6.70;48.00;;;;;;5036344;28;20029;-58
2022/03/10 03:01:52;;;;;;;22.60;12.63;;;6.70;48.00;;;;;;5055038;28;20029;-57
2022/03/10 03:04:18;;;;;;;19.45;13.02;;;6.70;48.10;;;;;;5036173;28;20397;-58
2022/03/10 03:06:44;;;;;;;23.30;12.60;;;6.70;48.20;;;;;;5054696;28;20029;-57
2022/03/10 03:09:10;;;;;;;21.80;12.43;;;6.70;48.30;;;;;;5036706;28;20029;-57
2022/03/10 03:11:35;;;;;;;18.90;12.05;;;6.70;48.40;;;;;;5053868;28;20596;-58
2022/03/10 03:14:01;;;;;;;18.88;12.38;;;6.70;48.40;;;;;;5036568;28;20450;-57
2022/03/10 03:16:28;;;;;;;20.90;12.70;;;6.60;48.50;;;;;;5053884;28;20040;-59
2022/03/10 03:18:54;;;;;;;21.48;12.93;;;6.60;48.50;;;;;;5054315;28;20051;-58
2022/03/10 03:21:20;;;;;;;20.40;11.98;;;6.60;48.80;;;;;;5053569;28;20466;-60
2022/03/10 03:23:47;;;;;;;24.85;12.43;;;6.60;48.70;;;;;;5053786;28;20029;-58
2022/03/10 03:26:13;;;;;;;20.40;12.52;;;6.50;48.70;;;;;;5054117;28;20470;-58
2022/03/10 03:28:39;;;;;;;20.02;12.50;;;6.50;48.80;;;;;;5054036;28;20083;-56
2022/03/10 03:31:04;;;;;;;19.55;12.30;;;6.50;48.80;;;;;;5053769;28;20025;-57
2022/03/10 03:33:31;;;;;;;24.50;12.45;;;6.40;48.90;;;;;;5053899;28;20480;-54
2022/03/10 03:35:57;;;;;;;21.25;12.25;;;6.40;49.10;;;;;;5054573;28;20036;-57
2022/03/10 03:38:23;;;;;;;20.58;12.88;;;6.40;49.20;;;;;;5053601;28;20035;-56
2022/03/10 03:40:49;;;;;;;24.25;12.63;;;6.40;49.30;;;;;;5053976;28;20067;-58
2022/03/10 03:43:15;;;;;;;20.83;12.43;;;6.40;49.30;;;;;;5054034;28;20036;-57
2022/03/10 03:45:41;;;;;;;20.65;12.57;;;6.40;49.30;;;;;;5035413;28;20397;-56
2022/03/10 03:48:07;;;;;;;18.95;12.77;;;6.40;49.30;;;;;;5053860;28;20029;-58
2022/03/10 03:50:32;;;;;;;20.77;12.80;;;6.40;49.30;;;;;;5053304;28;20017;-57
2022/03/10 03:52:58;;;;;;;22.15;12.88;;;6.40;49.30;;;;;;5053678;28;20029;-57
2022/03/10 03:55:24;;;;;;;24.52;13.05;;;6.30;49.30;;;;;;5052473;28;20033;-59
2022/03/10 03:57:50;;;;;;;21.70;12.68;;;6.30;49.40;;;;;;5053554;28;20021;-58
2022/03/10 04:00:16;;;;;;;24.98;12.95;;;6.30;49.40;;;;;;5053325;28;20031;-57
2022/03/10 04:02:42;;;;;;;22.20;12.82;;;6.30;49.40;;;;;;5052305;28;20091;-58
2022/03/10 04:05:08;;;;;;;25.92;12.85;;;6.30;49.50;;;;;;5053162;28;20033;-58
2022/03/10 04:07:35;;;;;;;21.98;12.57;;;6.30;49.60;;;;;;5051938;28;20031;-57
2022/03/10 04:10:01;;;;;;;22.08;12.52;;;6.30;49.60;;;;;;5052745;28;20034;-57
2022/03/10 04:12:27;;;;;;;22.42;12.50;;;6.30;49.60;;;;;;5052724;28;20033;-59
2022/03/10 04:14:53;;;;;;;17.98;11.68;;;6.20;49.80;;;;;;5053646;28;20029;-57
2022/03/10 04:17:19;;;;;;;21.35;12.38;;;6.20;49.80;;;;;;5052951;28;20122;-58
2022/03/10 04:19:45;;;;;;;20.50;12.63;;;6.20;49.70;;;;;;5053319;28;20025;-59
2022/03/10 04:22:11;;;;;;;24.88;13.20;;;6.20;49.70;;;;;;5052663;28;20071;-57
2022/03/10 04:24:36;;;;;;;21.73;12.27;;;6.20;49.70;;;;;;5052700;28;20033;-58
2022/03/10 04:27:03;;;;;;;21.75;12.75;;;6.20;49.70;;;;;;5053022;28;20029;-56
2022/03/10 04:29:29;;;;;;;24.63;12.95;;;6.20;49.60;;;;;;5052804;28;20043;-57
2022/03/10 04:31:55;;;;;;;26.35;14.45;;;6.20;49.60;;;;;;5053250;28;20104;-59
2022/03/10 04:34:20;;;;;;;19.83;13.00;;;6.20;49.70;;;;;;5053047;28;20104;-58
2022/03/10 04:36:46;;;;;;;21.25;12.23;;;6.20;49.60;;;;;;5052571;28;20079;-55
2022/03/10 04:39:12;;;;;;;21.65;12.75;;;6.20;49.60;;;;;;5034647;28;20029;-58
2022/03/10 04:41:37;;;;;;;20.05;12.30;;;6.20;49.70;;;;;;5033916;28;20025;-59
2022/03/10 04:44:03;;;;;;;23.67;12.35;;;6.20;49.60;;;;;;5052117;28;20021;-57
2022/03/10 04:46:29;;;;;;;24.98;13.05;;;6.20;49.60;;;;;;5052216;28;20389;-59
2022/03/10 04:48:55;;;;;;;22.52;13.23;;;6.20;49.70;;;;;;5052639;28;20027;-59
2022/03/10 04:51:21;;;;;;;30.83;13.05;;;6.20;49.60;;;;;;5052337;28;20078;-58
2022/03/10 04:53:47;;;;;;;33.42;13.05;;;6.20;49.70;;;;;;5034023;28;20040;-58
2022/03/10 04:56:13;;;;;;;20.13;12.43;;;6.20;49.80;;;;;;5051943;28;20025;-58
2022/03/10 04:58:39;;;;;;;22.52;12.82;;;6.20;49.70;;;;;;5051506;28;20064;-58
2022/03/10 05:01:05;;;;;;;23.20;12.40;;;6.20;49.80;;;;;;5052383;28;20024;-58
2022/03/10 05:03:34;;;;;;;28.10;13.30;;;6.20;49.90;;;;;;5051598;28;20021;-59
2022/03/10 05:06:19;;;;;;;25.30;13.15;;;6.20;49.90;;;;;;5051966;28;20462;-58
2022/03/10 05:08:45;;;;;;;24.75;13.38;;;6.20;50.10;;;;;;5033725;28;20028;-57
2022/03/10 05:11:11;;;;;;;21.98;13.50;;;6.10;50.00;;;;;;5051642;28;20116;-56
2022/03/10 05:13:36;;;;;;;21.10;12.68;;;6.20;50.00;;;;;;5051203;28;20060;-57
2022/03/10 05:16:02;;;;;;;27.10;12.88;;;6.20;50.00;;;;;;5052620;28;20033;-55
2022/03/10 05:18:28;;;;;;;25.65;14.65;;;6.20;49.90;;;;;;5050638;28;20072;-69
2022/03/10 05:20:54;;;;;;;21.50;13.30;;;6.20;49.90;;;;;;5051334;28;20049;-57
2022/03/10 05:23:20;;;;;;;21.90;13.63;;;6.20;49.80;;;;;;5034215;28;20112;-60
2022/03/10 05:25:45;;;;;;;23.77;13.68;;;6.20;49.80;;;;;;5032581;28;20413;-59
2022/03/10 05:28:13;;;;;;;29.10;15.00;;;6.20;49.80;;;;;;5051713;28;20418;-58
2022/03/10 05:30:43;;;;;;;23.95;13.57;;;6.20;49.70;;;;;;5051278;28;20033;-57
2022/03/10 05:33:10;;;;;;;22.58;13.48;;;6.20;49.70;;;;;;5051780;28;20029;-58
2022/03/10 05:35:36;;;;;;;28.70;14.48;;;6.30;49.90;;;;;;5051443;28;20033;-59
2022/03/10 05:38:02;;;;;;;28.58;13.93;;;6.30;49.90;;;;;;5033955;28;20021;-59
2022/03/10 05:40:28;;;;;;;24.88;13.63;;;6.30;49.90;;;;;;5051505;28;20095;-70
2022/03/10 05:42:54;;;;;;;21.05;13.13;;;6.30;50.00;;;;;;5051528;28;20466;-59
2022/03/10 05:45:21;;;;;;;26.70;14.00;;;6.30;50.00;;;;;;5051334;28;20060;-59
2022/03/10 05:47:52;;;;;;;24.27;13.48;;;6.40;50.00;;;;;;5051387;28;20039;-58
2022/03/10 05:50:18;;;;;;;27.60;14.38;;;6.40;49.90;;;;;;5033719;28;20029;-58
2022/03/10 05:52:45;;;;;;;25.27;13.85;;;6.50;50.00;;;;;;5050941;28;20439;-58
2022/03/10 05:55:12;;;;;;;27.92;14.30;;;6.50;49.90;;;;;;5050608;28;20033;-60
2022/03/10 05:57:38;;;;;;;24.73;14.70;;;6.50;50.00;;;;;;5050951;28;20025;-60
2022/03/10 06:00:05;;;;;;;25.85;14.02;;;6.50;50.00;;;;;;5051102;28;20021;-58
2022/03/10 06:02:30;;;;;;;27.38;14.95;;;6.60;49.90;;;;;;5050627;28;20531;-71
2022/03/10 06:05:00;;;;;;;34.25;15.73;;;6.60;49.90;;;;;;5051505;28;20037;-60
2022/03/10 06:07:27;;;;;;;30.00;13.57;;;6.60;50.40;;;;;;5051338;28;20123;-59
2022/03/10 06:09:54;;;;;;;28.65;14.00;;;6.70;49.80;;;;;;5051090;28;20128;-58
2022/03/10 06:12:23;;;;;;;28.13;13.77;;;6.70;49.70;;;;;;5051390;28;20025;-59
2022/03/10 06:14:55;;;;;;;31.02;15.80;;;6.80;49.70;;;;;;5050800;28;20589;-59
2022/03/10 06:17:21;;;;;;;24.63;15.20;;;6.80;49.60;;;;;;5051139;28;20036;-58
2022/03/10 06:19:47;;;;;;;29.30;15.40;;;6.80;49.60;;;;;;5050230;28;20021;-59
2022/03/10 06:22:20;;;;;;;25.13;14.52;;;6.90;49.50;;;;;;5051284;28;20126;-58
2022/03/10 06:24:47;;;;;;;28.52;14.93;;;7.00;49.40;;;;;;5032313;28;20044;-58
2022/03/10 06:27:14;;;;;;;35.17;16.27;;;7.10;49.40;;;;;;5051562;28;20076;-58
2022/03/10 06:29:41;;;;;;;28.55;16.35;;;7.10;49.20;;;;;;5032717;28;20029;-59
2022/03/10 06:32:07;;;;;;;28.67;16.63;;;7.20;49.30;;;;;;5033102;28;20061;-58
2022/03/10 06:34:33;;;;;;;28.92;15.20;;;7.20;49.20;;;;;;5032594;28;20032;-73
2022/03/10 06:36:59;;;;;;;44.30;16.58;;;7.40;49.20;;;;;;5032720;28;20025;-58
2022/03/10 06:39:25;;;;;;;26.38;15.77;;;7.50;48.90;;;;;;5050646;28;20043;-58
2022/03/10 06:41:50;;;;;;;40.17;16.42;;;7.60;48.90;;;;;;5049829;28;20025;-57
2022/03/10 06:44:16;;;;;;;33.05;16.48;;;7.70;48.70;;;;;;5032508;28;20025;-57
2022/03/10 06:46:42;;;;;;;30.13;16.55;;;7.80;48.70;;;;;;5031957;28;20072;-58
2022/03/10 06:49:07;;;;;;;32.90;17.25;;;8.00;48.50;;;;;;5032271;28;20124;-58
2022/03/10 06:51:33;;;;;;;35.90;17.70;;;8.20;48.20;;;;;;5032487;28;20037;-68
2022/03/10 06:53:59;;;;;;;36.17;18.73;;;8.20;48.00;;;;;;5032539;28;20021;-60
2022/03/10 06:56:25;;;;;;;35.45;17.92;;;8.30;48.00;;;;;;5050524;28;20036;-60
2022/03/10 06:58:51;;;;;;;31.13;17.48;;;8.20;48.10;;;;;;5050184;28;20021;-58
2022/03/10 07:01:18;;;;;;;44.35;19.35;;;8.20;48.10;;;;;;5050251;28;20029;-59
2022/03/10 07:04:02;;;;;;;32.00;17.27;;;8.30;48.20;;;;;;5049892;28;20162;-62
2022/03/10 07:06:28;;;;;;;42.13;19.63;;;8.40;48.10;;;;;;5051595;28;20112;-58
2022/03/10 07:08:54;;;;;;;34.50;17.73;;;8.40;48.10;;;;;;5035805;28;20524;-58
2022/03/10 07:11:20;;;;;;;35.97;18.77;;;8.60;48.10;;;;;;5036724;28;20021;-60
2022/03/10 07:13:46;;;;;;;34.97;18.50;;;8.70;47.90;;;;;;5036366;28;20074;-60
2022/03/10 07:16:13;;;;;;;39.72;19.25;;;8.90;47.60;;;;;;5036856;28;20040;-61
2022/03/10 07:18:39;;;;;;;42.63;19.75;;;9.10;47.30;;;;;;5053743;28;20025;-58
2022/03/10 07:21:05;;;;;;;37.22;20.92;;;9.30;47.10;;;;;;5045698;28;20040;-56
2022/03/10 07:23:32;;;;;;;41.25;22.30;;;9.40;47.00;;;;;;5074137;28;20028;-58
2022/03/10 07:25:58;;;;;;;42.25;22.30;;;9.60;46.80;;;;;;5072778;28;20080;-57
2022/03/10 07:28:24;;;;;;;45.30;22.70;;;9.80;46.50;;;;;;5073162;28;20350;-60
2022/03/10 07:30:50;;;;;;;42.88;23.38;;;9.80;46.30;;;;;;5072226;28;20066;-57
2022/03/10 07:33:16;;;;;;;40.67;24.02;;;9.90;46.50;;;;;;5074003;28;20465;-61
2022/03/10 07:35:43;;;;;;;45.08;24.75;;;9.80;46.90;;;;;;5073228;28;20028;-60
2022/03/10 07:38:10;;;;;;;43.83;25.13;;;9.80;47.40;;;;;;5075461;28;20373;-60
2022/03/10 07:40:39;;;;;;;48.47;27.52;;;9.70;47.70;;;;;;5074366;28;20052;-67
2022/03/10 07:43:05;;;;;;;56.47;27.65;;;9.60;48.50;;;;;;5072779;28;20051;-59
2022/03/10 07:45:32;;;;;;;51.28;27.65;;;9.50;48.80;;;;;;5070937;28;20032;-62
2022/03/10 07:47:58;;;;;;;43.97;27.55;;;9.60;48.90;;;;;;5070431;28;20091;-58
2022/03/10 07:50:24;;;;;;;45.40;28.75;;;9.70;48.90;;;;;;5073968;28;20457;-60
2022/03/10 07:52:50;;;;;;;47.78;28.20;;;10.00;48.30;;;;;;5073160;28;20381;-59
2022/03/10 07:55:16;;;;;;;47.20;27.05;;;10.30;47.60;;;;;;5069615;28;20112;-63
2022/03/10 07:57:42;;;;;;;48.80;26.80;;;10.70;47.30;;;;;;5071913;28;20059;-61
2022/03/10 08:00:09;;;;;;;51.00;27.02;;;11.30;46.10;;;;;;5074286;28;20078;-60
2022/03/10 08:02:37;;;;;;;42.88;26.25;;;11.70;44.50;;;;;;5072816;28;20021;-60
2022/03/10 08:05:04;;;;;;;43.65;25.90;;;12.50;42.70;;;;;;5071286;28;20032;-61
2022/03/10 08:07:32;;;;;;;42.13;25.80;;;12.50;42.20;;;;;;5072865;28;20385;-59
2022/03/10 08:10:04;;;;;;;41.78;25.58;;;12.30;42.60;;;;;;5072381;28;20192;-57
2022/03/10 08:12:31;;;;;;;39.92;25.27;;;12.50;42.30;;;;;;5073757;28;20108;-60
2022/03/10 08:14:56;;;;;;;36.88;26.02;;;13.10;41.00;;;;;;5072961;28;20033;-60
2022/03/10 08:17:23;;;;;;;38.53;25.75;;;13.40;40.70;;;;;;5072394;28;20166;-60
2022/03/10 08:19:49;;;;;;;39.42;25.65;;;13.90;39.50;;;;;;5070808;28;20025;-63
2022/03/10 08:22:16;;;;;;;37.50;25.02;;;14.40;38.60;;;;;;5056824;28;20047;-60
2022/03/10 08:24:42;;;;;;;40.60;25.17;;;15.80;37.40;;;;;;5052290;28;20171;-58
2022/03/10 08:27:08;;;;;;;46.28;24.42;;;17.50;35.40;;;;;;5052647;28;20040;-61
2022/03/10 08:29:34;;;;;;;37.53;26.08;;;18.20;33.50;;;;;;5052648;28;20036;-66
2022/03/10 08:32:00;;;;;;;37.00;24.83;;;18.00;33.00;;;;;;5051051;28;20029;-58
2022/03/10 08:34:26;;;;;;;35.85;24.45;;;19.00;31.40;;;;;;5053151;28;20025;-60
2022/03/10 08:36:52;;;;;;;35.60;24.23;;;18.20;31.00;;;;;;5033540;28;20431;-59
2022/03/10 08:39:18;;;;;;;30.98;23.30;;;16.90;32.50;;;;;;5032816;28;20021;-59
2022/03/10 08:41:44;;;;;;;32.97;24.08;;;16.20;34.30;;;;;;5051432;28;20028;-60
2022/03/10 08:44:12;;;;;;;36.05;24.30;;;15.90;34.70;;;;;;5052778;28;20025;-58
2022/03/10 08:46:39;;;;;;;33.90;24.58;;;15.50;34.80;;;;;;5050617;28;20238;-73
2022/03/10 08:49:05;;;;;;;32.88;24.58;;;15.00;35.10;;;;;;5032376;28;20025;-58
2022/03/10 08:51:31;;;;;;;35.15;24.08;;;14.60;35.60;;;;;;5051165;28;20384;-58
2022/03/10 08:53:56;;;;;;;35.67;23.42;;;14.00;36.40;;;;;;5033802;28;20205;-61
2022/03/10 08:56:41;;;;;;;37.38;23.48;;;13.80;36.80;;;;;;5051698;28;20037;-62
2022/03/10 08:59:06;;;;;;;34.17;24.13;;;13.60;37.00;;;;;;5051140;28;20104;-59
2022/03/10 09:01:32;;;;;;;38.75;23.85;;;13.30;37.50;;;;;;5031577;28;20056;-60
2022/03/10 09:03:58;;;;;;;33.35;22.98;;;13.10;38.00;;;;;;5031640;28;20029;-61
2022/03/10 09:06:24;;;;;;;31.85;22.55;;;12.80;38.40;;;;;;5049966;28;20068;-64
2022/03/10 09:08:50;;;;;;;39.85;27.35;;;12.60;38.70;;;;;;5051612;28;20059;-59
2022/03/10 09:11:16;;;;;;;35.75;23.88;;;12.20;39.10;;;;;;5032842;28;20056;-60
2022/03/10 09:13:48;;;;;;;35.90;22.15;;;11.70;39.90;;;;;;5050138;28;20040;-63
2022/03/10 09:16:14;;;;;;;39.25;22.83;;;11.80;40.60;;;;;;5051415;28;20029;-56
2022/03/10 09:18:41;;;;;;;42.05;22.75;;;11.80;40.50;;;;;;5049595;28;20057;-63
2022/03/10 09:21:07;;;;;;;46.08;23.50;;;11.80;40.60;;;;;;5027144;28;20350;-59
2022/03/10 09:23:33;;;;;;;32.60;22.73;;;11.80;40.60;;;;;;5070338;28;20417;-58
2022/03/10 09:25:58;;;;;;;39.95;23.70;;;11.60;40.90;;;;;;5069867;28;20123;-59
2022/03/10 09:28:24;;;;;;;36.08;23.40;;;11.70;40.90;;;;;;5069360;28;20441;-58
2022/03/10 09:30:50;;;;;;;39.22;26.27;;;11.50;41.10;;;;;;5070288;28;20028;-54
2022/03/10 09:33:16;;;;;;;40.75;22.73;;;11.50;41.10;;;;;;5069921;28;20388;-56
2022/03/10 09:35:41;;;;;;;40.55;21.88;;;11.70;41.00;;;;;;5071253;28;20090;-63
2022/03/10 09:38:08;;;;;;;30.70;21.40;;;11.80;40.90;;;;;;5069997;28;20124;-59
2022/03/10 09:40:33;;;;;;;30.83;21.05;;;12.00;40.10;;;;;;5070102;28;20090;-62
2022/03/10 09:42:59;;;;;;;30.60;20.50;;;12.20;40.20;;;;;;5071116;28;20028;-60
2022/03/10 09:45:29;;;;;;;32.83;20.42;;;12.40;39.80;;;;;;5071532;28;20521;-59
2022/03/10 09:47:55;;;;;;;26.95;20.13;;;12.30;39.40;;;;;;5069157;28;20035;-64
2022/03/10 09:50:21;;;;;;;35.40;21.83;;;12.20;39.30;;;;;;5069955;28;20021;-65
2022/03/10 09:52:47;;;;;;;30.13;20.45;;;12.10;39.50;;;;;;5070860;28;20056;-61
2022/03/10 09:55:15;;;;;;;30.25;20.25;;;12.00;39.50;;;;;;5070341;28;20048;-58
2022/03/10 09:57:42;;;;;;;36.78;21.23;;;12.10;39.60;;;;;;5070221;28;20020;-61
2022/03/10 10:00:10;;;;;;;33.15;20.10;;;12.00;39.40;;;;;;5069254;28;20464;-60
2022/03/10 10:02:37;;;;;;;28.55;20.83;;;12.10;39.60;;;;;;5070383;28;20020;-64
2022/03/10 10:05:41;;;;;;;30.42;18.88;;;12.30;39.30;;;;;;5070142;28;20278;-64
2022/03/10 10:08:17;;;;;;;44.08;21.42;;;12.40;38.60;;;;;;5058207;28;20123;-65
2022/03/10 10:10:54;;;;;;;27.80;19.42;;;12.50;38.40;;;;;;5070140;28;20043;-63
2022/03/10 10:13:43;;;;;;;26.95;19.10;;;12.40;38.00;;;;;;5070987;28;20021;-62
2022/03/10 10:16:10;;;;;;;24.38;18.30;;;12.10;38.30;;;;;;5069664;28;20144;-60
2022/03/10 10:18:37;;;;;;;23.70;17.88;;;12.20;38.00;;;;;;5064258;28;20500;-58
2022/03/10 10:21:05;;;;;;;28.25;16.98;;;12.20;37.70;;;;;;5061677;28;20269;-59
2022/03/10 10:23:33;;;;;;;25.38;18.02;;;12.20;37.80;;;;;;5031169;28;20052;-61
2022/03/10 10:26:01;;;;;;;28.20;19.85;;;12.10;36.90;;;;;;5029999;28;20450;-62
2022/03/10 10:28:28;;;;;;;25.88;15.77;;;11.80;37.20;;;;;;5029624;28;20110;-61
2022/03/10 10:30:54;;;;;;;26.55;16.52;;;11.70;37.80;;;;;;5049992;28;20025;-58
2022/03/10 10:33:21;;;;;;;29.80;15.70;;;11.60;38.20;;;;;;5049906;28;20085;-56
2022/03/10 10:35:47;;;;;;;41.90;17.13;;;11.70;37.40;;;;;;5049190;28;20029;-65
2022/03/10 10:38:28;;;;;;;28.35;16.77;;;11.80;37.60;;;;;;5029283;28;20144;-62
2022/03/10 10:41:18;;;;;;;32.40;17.02;;;11.90;37.30;;;;;;5049453;28;20021;-61
2022/03/10 10:43:47;;;;;;;31.95;17.35;;;12.00;37.50;;;;;;5052603;28;20033;-68
2022/03/10 10:46:22;;;;;;;42.90;17.33;;;12.00;37.30;;;;;;5036279;28;20041;-62
2022/03/10 10:48:48;;;;;;;37.20;17.85;;;12.10;37.20;;;;;;5034706;28;20029;-60
2022/03/10 10:51:14;;;;;;;35.22;18.23;;;12.30;36.90;;;;;;5052241;28;20025;-57
2022/03/10 10:53:40;;;;;;;29.95;19.48;;;12.40;37.10;;;;;;5052755;28;20021;-59
2022/03/10 10:56:07;;;;;;;29.85;18.02;;;12.40;36.60;;;;;;5053393;28;20039;-63
2022/03/10 10:58:33;;;;;;;45.00;18.30;;;12.40;36.80;;;;;;5053967;28;20466;-60
2022/03/10 11:00:58;;;;;;;26.73;17.77;;;12.30;36.70;;;;;;5034583;28;20383;-60
2022/03/10 11:03:25;;;;;;;30.75;18.25;;;12.30;36.90;;;;;;5034912;28;20028;-59
2022/03/10 11:05:52;;;;;;;36.90;18.23;;;12.20;36.50;;;;;;5051973;28;20369;-62
2022/03/10 11:08:20;;;;;;;41.60;28.35;;;12.10;36.70;;;;;;5035944;28;20032;-62
2022/03/10 11:10:48;;;;;;;36.10;19.55;;;12.00;36.30;;;;;;5051151;28;20059;-66
2022/03/10 11:13:17;;;;;;;28.13;18.40;;;12.00;36.70;;;;;;5033449;28;20047;-62
2022/03/10 11:15:44;;;;;;;44.67;18.40;;;12.10;36.30;;;;;;5050212;28;20111;-59
2022/03/10 11:18:12;;;;;;;32.25;17.65;;;12.00;36.20;;;;;;5018042;28;20033;-61
2022/03/10 11:20:40;;;;;;;33.25;17.27;;;12.10;35.70;;;;;;5052824;28;20040;-61
2022/03/10 11:23:27;;;;;;;26.05;18.52;;;12.00;35.70;;;;;;5033898;28;20234;-61
2022/03/10 11:26:08;;;;;;;23.65;17.25;;;11.80;35.60;;;;;;5034320;28;20098;-67
2022/03/10 11:28:42;;;;;;;42.28;29.45;;;11.70;36.30;;;;;;5033057;28;20085;-66
2022/03/10 11:31:09;;;;;;;20.15;15.88;;;11.90;36.10;;;;;;5034374;28;20025;-63
2022/03/10 11:33:40;;;;;;;25.95;15.90;;;12.00;36.40;;;;;;5034359;28;20033;-62
2022/03/10 11:36:24;;;;;;;21.35;15.68;;;12.20;35.30;;;;;;5034636;28;20036;-62
2022/03/10 11:38:55;;;;;;;25.00;17.70;;;12.10;34.70;;;;;;5051701;28;20087;-62
2022/03/10 11:41:41;;;;;;;23.95;16.60;;;12.20;34.90;;;;;;5050874;28;20021;-63
2022/03/10 11:44:07;;;;;;;23.73;15.07;;;12.30;34.70;;;;;;5050330;28;20025;-63
2022/03/10 11:46:35;;;;;;;32.38;15.10;;;12.50;34.40;;;;;;5052713;28;20112;-62
2022/03/10 11:49:19;;;;;;;31.83;14.45;;;12.30;33.60;;;;;;5017022;28;20039;-68
2022/03/10 11:51:56;;;;;;;30.33;13.93;;;12.10;33.10;;;;;;5017871;28;20102;-63
2022/03/10 11:54:31;;;;;;;22.05;13.30;;;11.90;33.40;;;;;;5032056;28;20025;-64
2022/03/10 11:57:02;;;;;;;26.83;13.60;;;12.00;33.30;;;;;;5050376;28;20100;-63
2022/03/10 11:59:31;;;;;;;37.67;17.05;;;11.90;32.60;;;;;;5033060;28;20074;-62
2022/03/10 12:01:58;;;;;;;25.40;13.55;;;11.80;31.70;;;;;;5034055;28;20033;-61
2022/03/10 12:04:35;;;;;;;38.25;13.10;;;11.90;30.70;;;;;;5051970;28;20032;-62
2022/03/10 12:07:02;;;;;;;24.75;12.48;;;11.90;30.50;;;;;;5034136;28;20043;-61
2022/03/10 12:09:33;;;;;;;44.75;12.43;;;11.80;30.40;;;;;;5034807;28;20029;-65
2022/03/10 12:12:25;;;;;;;33.20;17.48;;;11.90;30.10;;;;;;5052111;28;20527;-61
2022/03/10 12:14:55;;;;;;;35.20;18.58;;;12.00;30.10;;;;;;5033936;28;20028;-66
2022/03/10 12:17:44;;;;;;;45.53;26.15;;;12.10;30.30;;;;;;5034025;28;20033;-66
2022/03/10 12:20:18;;;;;;;30.83;15.27;;;12.20;30.40;;;;;;5051593;28;20294;-61
2022/03/10 12:23:03;;;;;;;28.15;14.70;;;12.20;30.90;;;;;;5034381;28;20055;-62
2022/03/10 12:25:30;;;;;;;33.83;13.35;;;12.20;30.80;;;;;;5052243;28;20108;-61
2022/03/10 12:27:57;;;;;;;37.58;12.63;;;12.20;30.40;;;;;;5034075;28;20035;-61
2022/03/10 12:30:26;;;;;;;27.58;11.80;;;12.00;30.00;;;;;;5018202;28;20025;-62
2022/03/10 12:32:54;;;;;;;19.65;11.77;;;11.90;30.40;;;;;;5052139;28;20052;-61
2022/03/10 12:35:24;;;;;;;21.95;12.05;;;12.00;30.80;;;;;;5034527;28;20358;-60
2022/03/10 12:37:51;;;;;;;28.98;12.25;;;12.10;30.70;;;;;;5051864;28;20025;-60
2022/03/10 12:40:23;;;;;;;19.35;11.38;;;12.00;30.30;;;;;;5034702;28;20386;-60
2022/03/10 12:42:49;;;;;;;22.67;12.43;;;12.10;30.50;;;;;;5052297;28;20032;-60
2022/03/10 12:45:22;;;;;;;44.08;23.52;;;12.20;30.40;;;;;;5033293;28;20201;-61